Time;durP1;ratioP1;P1;durP2;ratioP2;P2;SDS_P1;SDS_P2;PMS_P1;PMS_P2;Temp;Humidity;BMP_temperature;BMP_pressure;BME280_temperature;BME280_humidity;BME280_pressure;Samples;Min_cycle;Max_cycle;Signal;HPM_P1;HPM_P2
2022/12/17 13:06:39;;;;;;;38.20;25.65;;;5.00;99.90;;;;;;4951794;28;20557;-74
2022/12/17 13:09:25;;;;;;;41.83;27.42;;;5.00;99.90;;;;;;4952181;29;20132;-74
2022/12/17 13:11:55;;;;;;;44.13;27.52;;;5.00;99.90;;;;;;4939209;29;20111;-71
2022/12/17 13:14:27;;;;;;;43.58;27.05;;;5.00;99.90;;;;;;4952104;29;20042;-73
2022/12/17 13:17:07;;;;;;;42.92;26.88;;;4.90;99.90;;;;;;4948335;29;20508;-74
2022/12/17 13:19:35;;;;;;;42.83;26.70;;;5.00;99.90;;;;;;4995370;28;20041;-73
2022/12/17 13:22:13;;;;;;;42.38;26.83;;;4.90;99.90;;;;;;5050870;28;20139;-72
2022/12/17 13:24:40;;;;;;;41.97;26.52;;;5.00;99.90;;;;;;5052030;28;20029;-74
2022/12/17 13:27:35;;;;;;;45.63;28.90;;;5.10;99.90;;;;;;5052333;28;20037;-73
2022/12/17 13:30:33;;;;;;;49.13;25.95;;;5.10;99.90;;;;;;5051797;28;20107;-74
2022/12/17 13:33:19;;;;;;;39.85;25.67;;;5.10;99.90;;;;;;4951716;29;20039;-73
2022/12/17 13:36:12;;;;;;;44.60;26.05;;;5.10;99.90;;;;;;4876213;29;20493;-73
2022/12/17 13:39:02;;;;;;;;;;;5.00;99.90;;;;;;4877098;29;20056;-74
2022/12/17 13:41:31;;;;;;;40.40;24.48;;;5.00;99.90;;;;;;4876516;29;20328;-74
2022/12/17 13:44:01;;;;;;;41.00;25.95;;;5.00;99.90;;;;;;4876358;29;20037;-73
2022/12/17 13:46:47;;;;;;;42.38;24.88;;;5.00;99.90;;;;;;4876362;29;20064;-74
2022/12/17 13:49:23;;;;;;;40.00;25.75;;;5.00;99.90;;;;;;4876241;29;20477;-73
2022/12/17 13:52:19;;;;;;;46.55;28.13;;;5.00;99.90;;;;;;4876131;29;20413;-74
2022/12/17 13:54:45;;;;;;;45.97;29.10;;;5.00;99.90;;;;;;4872206;29;20481;-74
2022/12/17 13:57:21;;;;;;;40.53;24.95;;;5.10;99.90;;;;;;4876172;29;20096;-74
2022/12/17 13:59:54;;;;;;;40.92;24.20;;;5.10;99.90;;;;;;4876115;29;20132;-74
2022/12/17 14:02:30;;;;;;;40.78;23.85;;;5.20;99.90;;;;;;4875963;29;20568;-73
2022/12/17 14:04:58;;;;;;;37.70;24.65;;;5.20;99.90;;;;;;4876287;29;20529;-74
2022/12/17 14:07:25;;;;;;;44.97;26.15;;;5.20;99.90;;;;;;4875813;29;20132;-73
2022/12/17 14:09:52;;;;;;;41.65;25.05;;;5.20;99.90;;;;;;4930767;29;20151;-74
2022/12/17 14:12:20;;;;;;;36.22;22.65;;;5.20;99.90;;;;;;4978747;28;20050;-73
2022/12/17 14:14:51;;;;;;;34.60;22.48;;;5.20;99.90;;;;;;5051784;28;20519;-74
2022/12/17 14:17:23;;;;;;;40.92;24.40;;;5.10;99.90;;;;;;5053774;28;20464;-73
2022/12/17 14:20:19;;;;;;;42.05;26.95;;;5.10;99.90;;;;;;5055264;28;20033;-74
2022/12/17 14:22:48;;;;;;;43.92;26.60;;;5.00;99.90;;;;;;5050959;28;20076;-73
2022/12/17 14:25:17;;;;;;;42.72;28.02;;;5.00;99.90;;;;;;5055508;28;20031;-74
2022/12/17 14:27:57;;;;;;;40.15;25.17;;;5.00;99.90;;;;;;5055385;28;20136;-73
2022/12/17 14:30:44;;;;;;;39.83;26.17;;;5.00;99.90;;;;;;5054986;28;20075;-73
2022/12/17 14:33:28;;;;;;;39.72;21.70;;;4.90;99.90;;;;;;5055486;28;20029;-73
2022/12/17 14:35:56;;;;;;;45.60;27.02;;;4.90;99.90;;;;;;5055379;28;20116;-73
2022/12/17 14:38:22;;;;;;;43.35;26.33;;;4.90;99.90;;;;;;5055562;28;20021;-73
2022/12/17 14:40:48;;;;;;;39.08;24.00;;;4.90;99.90;;;;;;5055304;28;20071;-73
2022/12/17 14:43:14;;;;;;;42.08;24.75;;;4.90;99.90;;;;;;5055722;28;20045;-74
2022/12/17 14:49:01;;;;;;;41.53;24.75;;;4.90;99.90;;;;;;5045586;28;20036;-74
2022/12/17 14:51:35;;;;;;;38.03;23.65;;;4.90;99.90;;;;;;5054829;28;20112;-73
2022/12/17 14:54:17;;;;;;;41.05;25.88;;;4.90;99.90;;;;;;5055306;28;20484;-73
2022/12/17 14:56:44;;;;;;;40.38;23.92;;;4.90;99.90;;;;;;5054716;28;20063;-74
2022/12/17 14:59:29;;;;;;;37.97;23.58;;;4.80;99.90;;;;;;5054891;28;20441;-73
2022/12/17 15:01:55;;;;;;;35.97;22.77;;;4.70;99.90;;;;;;5055452;28;20021;-74
2022/12/17 15:04:22;;;;;;;35.20;21.60;;;4.80;99.90;;;;;;5054350;28;20531;-73
2022/12/17 15:06:49;;;;;;;40.33;23.40;;;4.70;99.90;;;;;;5054804;28;20041;-74
2022/12/17 15:09:15;;;;;;;39.33;23.23;;;4.70;99.90;;;;;;5054666;28;20071;-74
2022/12/17 15:11:41;;;;;;;37.97;23.17;;;4.70;99.90;;;;;;5054684;28;20392;-73
2022/12/17 15:14:08;;;;;;;37.42;23.55;;;4.80;99.90;;;;;;5054764;28;20096;-74
2022/12/17 15:16:34;;;;;;;40.80;25.42;;;4.70;99.90;;;;;;5054757;28;20127;-74
2022/12/17 15:19:00;;;;;;;38.92;23.10;;;4.70;99.90;;;;;;5054689;28;20376;-74
2022/12/17 15:21:26;;;;;;;40.25;24.52;;;4.70;99.90;;;;;;5054264;28;20270;-73
2022/12/17 15:23:51;;;;;;;40.30;22.83;;;4.70;99.90;;;;;;5054586;28;20104;-73
2022/12/17 15:26:18;;;;;;;38.33;23.17;;;4.60;99.90;;;;;;5054473;28;20083;-74
2022/12/17 15:28:45;;;;;;;40.63;24.80;;;4.60;99.90;;;;;;5053046;28;20036;-74
2022/12/17 15:31:12;;;;;;;41.88;25.98;;;4.60;99.90;;;;;;5054574;28;20025;-74
2022/12/17 15:33:38;;;;;;;43.03;27.23;;;4.60;99.90;;;;;;5054204;28;20472;-72
2022/12/17 15:36:04;;;;;;;43.33;27.02;;;4.60;99.90;;;;;;5054093;28;20579;-72
2022/12/17 15:38:30;;;;;;;48.65;28.88;;;4.70;99.90;;;;;;5053981;28;20031;-72
2022/12/17 15:41:00;;;;;;;46.80;28.60;;;4.60;99.90;;;;;;5054320;28;20392;-71
2022/12/17 15:43:26;;;;;;;43.15;28.25;;;4.70;99.90;;;;;;5054070;28;20496;-72
2022/12/17 15:45:52;;;;;;;44.13;28.80;;;4.60;99.90;;;;;;5054414;28;20100;-73
2022/12/17 15:48:20;;;;;;;51.13;30.25;;;4.70;99.90;;;;;;5040673;28;20037;-72
2022/12/17 15:50:46;;;;;;;47.78;28.48;;;4.70;99.90;;;;;;5054058;28;20452;-73
2022/12/17 15:53:12;;;;;;;50.53;29.20;;;4.70;99.90;;;;;;5053878;28;20020;-72
2022/12/17 15:55:39;;;;;;;50.40;31.55;;;4.60;99.90;;;;;;5053664;28;20357;-74
2022/12/17 15:58:06;;;;;;;54.40;33.33;;;4.70;99.90;;;;;;5053889;28;20040;-72
2022/12/17 16:00:32;;;;;;;46.55;31.92;;;4.70;99.90;;;;;;5053545;28;20024;-72
2022/12/17 16:02:58;;;;;;;47.55;29.55;;;4.70;99.90;;;;;;5053549;28;20029;-73
2022/12/17 16:05:24;;;;;;;46.80;28.67;;;4.70;99.90;;;;;;5053359;28;20021;-71
2022/12/17 16:07:50;;;;;;;47.00;28.95;;;4.70;99.90;;;;;;5054174;28;20082;-73
2022/12/17 16:10:17;;;;;;;38.70;25.10;;;4.70;99.90;;;;;;5053604;28;20129;-72
2022/12/17 16:12:44;;;;;;;41.60;25.55;;;4.60;99.90;;;;;;5040563;28;20025;-73
2022/12/17 16:15:11;;;;;;;43.80;26.38;;;4.60;99.90;;;;;;5053335;28;20065;-72
2022/12/17 16:17:36;;;;;;;49.50;29.70;;;4.60;99.90;;;;;;5053579;28;20029;-72
2022/12/17 16:20:06;;;;;;;44.28;27.30;;;4.60;99.90;;;;;;5053044;28;20425;-72
2022/12/17 16:22:32;;;;;;;45.80;26.67;;;4.60;99.90;;;;;;5053512;28;20099;-73
2022/12/17 16:24:57;;;;;;;48.00;29.50;;;4.60;99.90;;;;;;5052916;28;20383;-72
2022/12/17 16:27:23;;;;;;;49.10;31.77;;;4.60;99.90;;;;;;5053112;28;20029;-73
2022/12/17 16:29:49;;;;;;;42.97;26.65;;;4.60;99.90;;;;;;5053355;28;20028;-72
2022/12/17 16:32:16;;;;;;;45.00;26.30;;;4.60;99.90;;;;;;5052630;28;20074;-73
2022/12/17 16:34:42;;;;;;;46.40;30.00;;;4.60;99.90;;;;;;5052835;28;20032;-73
2022/12/17 16:37:09;;;;;;;41.38;25.35;;;4.60;99.90;;;;;;5053095;28;20119;-72
2022/12/17 16:39:35;;;;;;;47.28;28.77;;;4.60;99.90;;;;;;5052742;28;20078;-72
2022/12/17 16:42:00;;;;;;;46.65;28.15;;;4.60;99.90;;;;;;5053065;28;20032;-72
2022/12/17 16:44:26;;;;;;;49.10;27.58;;;4.60;99.90;;;;;;5053233;28;20499;-72
2022/12/17 16:46:52;;;;;;;49.63;26.65;;;4.60;99.90;;;;;;5052857;28;20051;-72
2022/12/17 16:49:20;;;;;;;45.33;28.92;;;4.60;99.90;;;;;;5052857;28;20531;-72
2022/12/17 16:51:50;;;;;;;47.92;29.33;;;4.60;99.90;;;;;;5052806;28;20112;-73
2022/12/17 16:54:19;;;;;;;44.20;27.25;;;4.60;99.90;;;;;;5052559;28;20115;-73
2022/12/17 16:56:45;;;;;;;51.70;32.95;;;4.60;99.90;;;;;;5052878;28;20021;-72
2022/12/17 16:59:13;;;;;;;44.22;26.50;;;4.70;99.90;;;;;;5052272;28;20514;-73
2022/12/17 17:01:40;;;;;;;78.53;43.38;;;4.70;99.90;;;;;;5053436;28;20464;-74
2022/12/17 17:04:08;;;;;;;50.35;28.20;;;4.70;99.90;;;;;;5052534;28;20021;-73
2022/12/17 17:06:55;;;;;;;43.65;24.98;;;4.60;99.90;;;;;;5052533;28;20068;-73
2022/12/17 17:09:24;;;;;;;48.10;25.88;;;4.70;99.90;;;;;;5039971;28;20044;-74
2022/12/17 17:11:49;;;;;;;46.47;29.48;;;4.60;99.90;;;;;;5052092;28;20028;-73
2022/12/17 17:14:16;;;;;;;43.38;27.17;;;4.60;99.90;;;;;;5052398;28;20036;-73
2022/12/17 17:16:41;;;;;;;39.85;26.45;;;4.60;99.90;;;;;;5052253;28;20056;-73
2022/12/17 17:19:07;;;;;;;41.75;27.27;;;4.60;99.90;;;;;;5052562;28;20106;-74
2022/12/17 17:21:35;;;;;;;46.33;28.85;;;4.60;99.90;;;;;;5051798;28;20104;-73
2022/12/17 17:24:07;;;;;;;43.65;26.15;;;4.60;99.90;;;;;;5052328;28;20072;-73
2022/12/17 17:26:33;;;;;;;42.03;26.52;;;4.60;99.90;;;;;;5052041;28;20036;-72
2022/12/17 17:29:00;;;;;;;40.33;25.80;;;4.60;99.90;;;;;;5052441;28;20111;-73
2022/12/17 17:31:27;;;;;;;43.83;27.17;;;4.60;99.90;;;;;;5052306;28;20488;-73
2022/12/17 17:33:53;;;;;;;47.58;30.25;;;4.60;99.90;;;;;;5051926;28;20052;-74
2022/12/17 17:36:27;;;;;;;51.83;32.22;;;4.60;99.90;;;;;;5052200;28;20040;-74
2022/12/17 17:38:54;;;;;;;54.45;28.98;;;4.60;99.90;;;;;;5051799;28;20024;-73
2022/12/17 17:41:22;;;;;;;44.03;27.70;;;4.60;99.90;;;;;;5051695;28;20017;-74
2022/12/17 17:43:55;;;;;;;41.20;25.67;;;4.60;99.90;;;;;;5051891;28;20032;-73
2022/12/17 17:46:21;;;;;;;49.67;27.23;;;4.60;99.90;;;;;;5051766;28;20044;-73
2022/12/17 17:48:48;;;;;;;45.35;26.55;;;4.60;99.90;;;;;;5051842;28;20492;-73
2022/12/17 17:51:17;;;;;;;43.45;24.17;;;4.60;99.90;;;;;;5050895;28;20476;-74
2022/12/17 17:53:45;;;;;;;38.00;22.88;;;4.60;99.90;;;;;;5052054;28;20028;-73
2022/12/17 17:56:14;;;;;;;41.35;25.73;;;4.50;99.90;;;;;;5051628;28;20154;-73
2022/12/17 17:58:42;;;;;;;39.67;23.27;;;4.50;99.90;;;;;;5051952;28;20392;-72
2022/12/17 18:01:14;;;;;;;40.08;24.90;;;4.50;99.90;;;;;;5051667;28;20059;-73
2022/12/17 18:03:40;;;;;;;44.42;25.50;;;4.50;99.90;;;;;;5051377;28;20411;-72
2022/12/17 18:06:08;;;;;;;40.33;23.70;;;4.50;99.90;;;;;;5051751;28;20024;-74
2022/12/17 18:08:35;;;;;;;37.75;22.90;;;4.50;99.90;;;;;;5051518;28;20041;-73
2022/12/17 18:11:03;;;;;;;39.47;24.45;;;4.40;99.90;;;;;;5051657;28;20025;-72
2022/12/17 18:16:14;;;;;;;43.33;24.90;;;4.40;99.90;;;;;;5051499;28;20033;-72
2022/12/17 18:18:41;;;;;;;42.67;24.42;;;4.40;99.90;;;;;;5051421;28;20490;-73
2022/12/17 18:21:09;;;;;;;40.65;24.10;;;4.40;99.90;;;;;;5051293;28;20049;-74
2022/12/17 18:23:35;;;;;;;43.03;25.25;;;4.40;99.90;;;;;;5051181;28;20029;-73
2022/12/17 18:26:06;;;;;;;38.25;24.00;;;4.40;99.90;;;;;;5051733;28;20524;-73
2022/12/17 18:28:32;;;;;;;48.13;23.95;;;4.30;99.90;;;;;;5051296;28;20079;-72
2022/12/17 18:31:03;;;;;;;35.53;22.02;;;4.30;99.90;;;;;;5051723;28;20056;-74
2022/12/17 18:33:29;;;;;;;34.83;19.17;;;4.20;99.90;;;;;;5050954;28;20042;-72
2022/12/17 18:35:55;;;;;;;33.47;19.25;;;4.20;99.90;;;;;;5051443;28;20025;-73
2022/12/17 18:38:21;;;;;;;35.53;21.13;;;4.20;99.90;;;;;;5051091;28;20025;-73
2022/12/17 18:40:46;;;;;;;35.50;21.02;;;4.10;99.90;;;;;;5051456;28;20064;-73
2022/12/17 18:43:24;;;;;;;35.45;20.00;;;4.10;99.90;;;;;;5051209;28;20029;-74
2022/12/17 18:45:51;;;;;;;32.65;18.77;;;4.10;99.90;;;;;;5051636;28;20037;-75
2022/12/17 18:48:18;;;;;;;30.40;19.17;;;4.10;99.90;;;;;;5051456;28;20033;-72
2022/12/17 18:50:45;;;;;;;36.80;21.15;;;4.10;99.90;;;;;;5050809;28;20117;-72
2022/12/17 18:53:11;;;;;;;37.97;21.50;;;4.00;99.90;;;;;;5051526;28;20372;-73
2022/12/17 18:55:39;;;;;;;39.08;22.55;;;4.00;99.90;;;;;;5051119;28;20033;-73
2022/12/17 18:58:08;;;;;;;36.35;21.98;;;4.10;99.90;;;;;;5051185;28;20064;-72
2022/12/17 19:00:35;;;;;;;40.88;24.20;;;4.10;99.90;;;;;;5050902;28;20036;-73
2022/12/17 19:03:03;;;;;;;39.53;25.20;;;4.10;99.90;;;;;;5052814;28;20476;-72
2022/12/17 19:05:29;;;;;;;43.60;25.10;;;4.10;99.90;;;;;;5054586;28;20021;-72
2022/12/17 19:07:55;;;;;;;42.75;25.60;;;4.10;99.90;;;;;;5054635;28;20547;-72
2022/12/17 19:10:21;;;;;;;42.35;23.83;;;4.20;99.90;;;;;;5054775;28;20056;-73
2022/12/17 19:12:47;;;;;;;42.20;24.50;;;4.10;99.90;;;;;;5054623;28;20052;-73
2022/12/17 19:15:13;;;;;;;43.40;24.30;;;4.10;99.90;;;;;;5054663;28;20059;-73
2022/12/17 19:17:38;;;;;;;39.33;23.98;;;4.10;99.90;;;;;;5054401;28;20033;-73
2022/12/17 19:20:05;;;;;;;43.60;26.00;;;4.10;99.90;;;;;;5042119;28;20022;-73
2022/12/17 19:22:30;;;;;;;44.95;26.40;;;4.10;99.90;;;;;;5040264;28;20033;-72
2022/12/17 19:24:56;;;;;;;47.45;28.33;;;4.10;99.90;;;;;;5054509;28;20029;-73
2022/12/17 19:27:22;;;;;;;43.10;26.33;;;4.10;99.90;;;;;;5054214;28;20044;-73
2022/12/17 19:29:48;;;;;;;43.00;26.55;;;4.20;99.90;;;;;;5054471;28;20381;-73
2022/12/17 19:32:13;;;;;;;39.03;22.63;;;4.10;99.90;;;;;;5054476;28;20381;-71
2022/12/17 19:34:39;;;;;;;42.47;26.67;;;4.10;99.90;;;;;;5054095;28;20461;-73
2022/12/17 19:37:05;;;;;;;38.90;24.73;;;4.10;99.90;;;;;;5054176;28;20029;-73
2022/12/17 19:39:31;;;;;;;39.67;24.42;;;4.10;99.90;;;;;;5053985;28;20041;-73
2022/12/17 19:41:56;;;;;;;49.30;27.55;;;4.10;99.90;;;;;;5054312;28;20033;-73
2022/12/17 19:44:22;;;;;;;39.85;23.77;;;4.20;99.90;;;;;;5053773;28;20469;-73
2022/12/17 19:46:48;;;;;;;42.55;23.00;;;4.10;99.90;;;;;;5053997;28;20605;-73
2022/12/17 19:49:15;;;;;;;39.05;21.80;;;4.10;99.90;;;;;;5053865;28;20048;-74
2022/12/17 19:52:01;;;;;;;39.72;23.02;;;4.10;99.90;;;;;;5053606;28;20044;-73
2022/12/17 19:54:27;;;;;;;36.60;23.17;;;4.10;99.90;;;;;;5053635;28;20384;-71
2022/12/17 19:56:54;;;;;;;42.38;25.42;;;4.10;99.90;;;;;;5053863;28;20020;-72
2022/12/17 19:59:20;;;;;;;39.88;23.85;;;4.00;99.90;;;;;;5053825;28;20033;-74
2022/12/17 20:01:47;;;;;;;38.85;23.17;;;4.00;99.90;;;;;;5053711;28;20028;-72
2022/12/17 20:04:15;;;;;;;42.95;24.75;;;4.10;99.90;;;;;;5053628;28;20437;-72
2022/12/17 20:06:42;;;;;;;41.95;24.23;;;4.10;99.90;;;;;;5053249;28;20067;-72
2022/12/17 20:09:08;;;;;;;40.40;23.70;;;4.10;99.90;;;;;;5053481;28;20495;-72
2022/12/17 20:11:34;;;;;;;36.58;21.45;;;4.10;99.90;;;;;;5053362;28;20025;-71
2022/12/17 20:13:59;;;;;;;37.95;22.63;;;4.10;99.90;;;;;;5053185;28;20055;-72
2022/12/17 20:16:27;;;;;;;36.85;22.17;;;4.00;99.90;;;;;;5053493;28;20451;-71
2022/12/17 20:18:53;;;;;;;49.58;28.33;;;4.00;99.90;;;;;;5053095;28;20032;-71
2022/12/17 20:21:19;;;;;;;48.58;25.67;;;3.90;99.90;;;;;;5053389;28;20052;-71
2022/12/17 20:23:50;;;;;;;49.35;29.55;;;4.00;99.90;;;;;;5052943;28;20039;-72
2022/12/17 20:26:17;;;;;;;43.67;26.35;;;3.90;99.90;;;;;;5053564;28;20060;-72
2022/12/17 20:28:44;;;;;;;40.10;24.65;;;3.90;99.90;;;;;;5052897;28;20032;-74
2022/12/17 20:31:10;;;;;;;44.70;26.80;;;3.90;99.90;;;;;;5053353;28;20053;-73
2022/12/17 20:33:36;;;;;;;42.40;24.92;;;3.90;99.90;;;;;;5052835;28;20503;-72
2022/12/17 20:36:09;;;;;;;48.05;26.05;;;3.90;99.90;;;;;;5053210;28;20033;-72
2022/12/17 20:38:35;;;;;;;39.92;24.55;;;3.90;99.90;;;;;;5053244;28;20033;-71
2022/12/17 20:41:07;;;;;;;34.55;21.80;;;3.80;99.90;;;;;;5053000;28;20028;-72
2022/12/17 20:43:32;;;;;;;38.00;21.73;;;3.80;99.90;;;;;;5040611;28;20029;-71
2022/12/17 20:46:00;;;;;;;39.35;22.65;;;3.80;99.90;;;;;;5052602;28;20032;-72
2022/12/17 20:48:26;;;;;;;33.03;20.60;;;3.90;99.90;;;;;;5053321;28;20045;-71
2022/12/17 20:50:53;;;;;;;36.70;21.35;;;3.80;99.90;;;;;;5052280;28;20047;-72
2022/12/17 20:53:19;;;;;;;35.45;20.27;;;3.80;99.90;;;;;;5053107;28;20077;-74
2022/12/17 20:55:45;;;;;;;31.00;19.73;;;3.80;99.90;;;;;;5052895;28;20025;-72
2022/12/17 20:58:12;;;;;;;38.92;22.83;;;3.90;99.90;;;;;;5052695;28;20028;-72
2022/12/17 21:00:39;;;;;;;31.50;19.85;;;3.90;99.90;;;;;;5051035;28;20421;-71
2022/12/17 21:03:05;;;;;;;35.17;21.67;;;3.90;99.90;;;;;;5041617;28;20032;-72
2022/12/17 21:05:34;;;;;;;34.08;21.10;;;3.80;99.90;;;;;;5021111;28;20036;-72
2022/12/17 21:08:00;;;;;;;35.38;20.25;;;3.90;99.90;;;;;;5007373;28;20132;-72
2022/12/17 21:10:29;;;;;;;35.40;20.92;;;3.90;99.90;;;;;;5042749;28;20116;-73
2022/12/17 21:15:39;;;;;;;35.85;20.92;;;3.90;99.90;;;;;;5041370;28;20349;-73
2022/12/17 21:18:05;;;;;;;32.13;21.13;;;3.90;99.90;;;;;;5040458;28;20131;-73
2022/12/17 21:20:31;;;;;;;33.13;20.98;;;3.90;99.90;;;;;;5041893;28;20041;-73
2022/12/17 21:22:56;;;;;;;32.85;19.30;;;3.90;99.90;;;;;;5040973;28;20033;-73
2022/12/17 21:25:22;;;;;;;32.88;19.30;;;3.80;99.90;;;;;;5040672;28;20029;-72
2022/12/17 21:27:48;;;;;;;28.20;16.98;;;3.80;99.90;;;;;;5038850;28;20447;-72
2022/12/17 21:30:14;;;;;;;32.63;18.23;;;3.80;99.90;;;;;;5039890;28;20035;-72
2022/12/17 21:32:40;;;;;;;31.33;18.48;;;3.80;99.90;;;;;;5042077;28;20468;-72
2022/12/17 21:35:06;;;;;;;31.60;18.25;;;3.80;99.90;;;;;;5040446;28;20097;-72
2022/12/17 21:37:32;;;;;;;35.22;18.35;;;3.80;99.90;;;;;;5040621;28;20025;-72
2022/12/17 21:39:57;;;;;;;35.33;19.70;;;3.80;99.90;;;;;;5024090;28;20094;-72
2022/12/17 21:45:08;;;;;;;37.47;19.83;;;3.70;99.90;;;;;;5040849;28;20464;-71
2022/12/17 21:47:33;;;;;;;34.28;19.00;;;3.80;99.90;;;;;;5040074;28;20039;-71
2022/12/17 21:49:59;;;;;;;39.63;19.70;;;3.70;99.90;;;;;;5042071;28;20013;-71
2022/12/17 21:52:25;;;;;;;60.35;29.63;;;3.80;99.90;;;;;;5040426;28;20381;-71
2022/12/17 21:54:51;;;;;;;74.72;38.13;;;3.80;99.90;;;;;;5022240;28;20048;-71
2022/12/17 21:57:17;;;;;;;38.67;21.08;;;3.80;99.90;;;;;;5041924;28;20075;-72
2022/12/17 21:59:43;;;;;;;39.58;21.70;;;3.80;99.90;;;;;;5039910;28;20029;-71
2022/12/17 22:02:09;;;;;;;32.03;17.77;;;3.80;99.90;;;;;;5040735;28;20017;-72
2022/12/17 22:04:35;;;;;;;30.27;18.17;;;3.80;99.90;;;;;;5042491;28;20113;-71
2022/12/17 22:07:01;;;;;;;34.47;19.05;;;3.80;99.90;;;;;;5040228;28;20433;-71
2022/12/17 22:09:27;;;;;;;34.08;19.05;;;3.80;99.90;;;;;;5040515;28;20488;-71
2022/12/17 22:14:01;;;;;;;34.22;18.67;;;3.80;99.90;;;;;;5041405;28;20088;-71
2022/12/17 22:14:38;;;;;;;28.55;16.73;;;3.70;99.90;;;;;;5042251;28;20071;-71
2022/12/17 22:17:04;;;;;;;33.05;18.17;;;3.70;99.90;;;;;;5040316;28;20045;-71
2022/12/17 22:19:30;;;;;;;33.22;17.33;;;3.70;99.90;;;;;;5040329;28;20025;-71
2022/12/17 22:21:56;;;;;;;31.50;18.35;;;3.80;99.90;;;;;;5041117;28;20370;-71
2022/12/17 22:24:23;;;;;;;32.67;17.67;;;3.70;99.90;;;;;;5039627;28;20036;-71
2022/12/17 22:26:49;;;;;;;29.30;17.10;;;3.80;99.90;;;;;;5040116;28;20044;-71
2022/12/17 22:32:58;;;;;;;29.10;18.13;;;3.70;99.90;;;;;;5041497;28;20197;-71
2022/12/17 22:34:46;;;;;;;30.27;17.38;;;3.70;99.90;;;;;;5048920;28;20024;-71
2022/12/17 22:37:12;;;;;;;34.15;19.30;;;3.80;99.90;;;;;;5051162;28;20119;-73
2022/12/17 22:39:38;;;;;;;32.40;17.38;;;3.70;99.90;;;;;;5055021;28;20024;-73
2022/12/17 22:44:48;;;;;;;32.50;17.33;;;3.70;99.90;;;;;;5055616;28;20082;-73
2022/12/17 22:47:14;;;;;;;29.38;16.45;;;3.70;99.90;;;;;;5055133;28;20124;-73
2022/12/17 22:49:39;;;;;;;28.63;17.88;;;3.60;99.90;;;;;;5052389;28;20018;-72
2022/12/17 22:52:05;;;;;;;32.15;17.98;;;3.70;99.90;;;;;;5052594;28;20025;-72
2022/12/17 22:54:31;;;;;;;30.05;16.05;;;3.70;99.90;;;;;;5055115;28;20086;-73
2022/12/17 22:56:57;;;;;;;30.83;17.55;;;3.70;99.90;;;;;;5054483;28;20016;-73
2022/12/17 22:59:23;;;;;;;34.95;17.95;;;3.70;99.90;;;;;;5044849;28;20036;-73
2022/12/17 23:01:48;;;;;;;27.60;15.90;;;3.70;99.90;;;;;;5052229;28;20021;-72
2022/12/17 23:04:15;;;;;;;30.25;17.83;;;3.60;99.90;;;;;;5055064;28;20087;-72
2022/12/17 23:06:44;;;;;;;36.83;19.10;;;3.60;99.90;;;;;;5054935;28;20013;-72
2022/12/17 23:09:10;;;;;;;32.75;16.70;;;3.60;99.90;;;;;;5054733;28;20376;-72
2022/12/17 23:11:35;;;;;;;31.05;16.70;;;3.60;99.90;;;;;;5054484;28;20020;-72
2022/12/17 23:14:02;;;;;;;27.13;15.25;;;3.50;99.90;;;;;;5054348;28;20376;-73
2022/12/17 23:16:27;;;;;;;25.58;14.77;;;3.60;99.90;;;;;;5054729;28;20032;-72
2022/12/17 23:18:54;;;;;;;27.20;16.05;;;3.50;99.90;;;;;;5065083;28;20032;-72
2022/12/17 23:21:23;;;;;;;24.45;14.90;;;3.50;99.90;;;;;;5044112;28;20037;-71
2022/12/17 23:23:50;;;;;;;29.10;15.50;;;3.50;99.90;;;;;;5054484;28;20078;-70
2022/12/17 23:26:20;;;;;;;27.63;15.88;;;3.50;99.90;;;;;;5054495;28;20036;-71
2022/12/17 23:28:47;;;;;;;29.85;17.42;;;3.50;99.90;;;;;;5054470;28;20143;-73
2022/12/17 23:31:16;;;;;;;30.05;15.40;;;3.50;99.90;;;;;;5054233;28;20071;-71
2022/12/17 23:33:42;;;;;;;26.73;15.45;;;3.50;99.90;;;;;;5054467;28;20369;-71
2022/12/17 23:36:18;;;;;;;29.83;17.40;;;3.50;99.90;;;;;;5053692;28;20013;-73
2022/12/17 23:38:44;;;;;;;28.48;15.65;;;3.50;99.90;;;;;;5054379;28;20039;-71
2022/12/17 23:41:16;;;;;;;28.23;15.48;;;3.50;99.90;;;;;;5053878;28;20468;-73
2022/12/17 23:43:42;;;;;;;31.15;14.15;;;3.50;99.90;;;;;;5054318;28;20060;-71
2022/12/17 23:46:08;;;;;;;27.65;16.30;;;3.50;99.90;;;;;;5053879;28;20052;-73
2022/12/17 23:48:36;;;;;;;29.98;17.35;;;3.50;99.90;;;;;;5053481;28;20650;-72
2022/12/17 23:51:03;;;;;;;27.42;16.48;;;3.40;99.90;;;;;;5053198;28;20108;-72
2022/12/17 23:53:31;;;;;;;27.27;15.52;;;3.40;99.90;;;;;;5053828;28;20384;-71
2022/12/17 23:56:16;;;;;;;25.42;15.50;;;3.50;99.90;;;;;;5053998;28;20021;-72
2022/12/17 23:58:44;;;;;;;30.95;16.15;;;3.40;99.90;;;;;;5053278;28;20472;-71
